sensor_id;sensor_type;location;lat;lon;timestamp;pressure;altitude;pressure_sealevel;temperature;humidity
29569;BME280;16501;51.462;14.346;2023-01-27T00:00:34;100648.50;;;-1.23;100.00
29569;BME280;16501;51.462;14.346;2023-01-27T00:02:59;100632.00;;;-1.23;100.00
29569;BME280;16501;51.462;14.346;2023-01-27T00:05:24;100627.59;;;-1.31;100.00
29569;BME280;16501;51.462;14.346;2023-01-27T00:07:50;100616.19;;;-1.34;100.00
29569;BME280;16501;51.462;14.346;2023-01-27T00:10:17;100634.25;;;-1.33;100.00
29569;BME280;16501;51.462;14.346;2023-01-27T00:12:45;100625.22;;;-1.33;100.00
29569;BME280;16501;51.462;14.346;2023-01-27T00:15:30;100610.66;;;-1.41;100.00
29569;BME280;16501;51.462;14.346;2023-01-27T00:17:56;100627.66;;;-1.24;100.00
29569;BME280;16501;51.462;14.346;2023-01-27T00:20:22;100596.91;;;-1.37;100.00
29569;BME280;16501;51.462;14.346;2023-01-27T00:23:20;100618.63;;;-1.21;100.00
29569;BME280;16501;51.462;14.346;2023-01-27T00:26:06;100604.78;;;-1.36;100.00
29569;BME280;16501;51.462;14.346;2023-01-27T00:28:34;100598.44;;;-1.40;100.00
29569;BME280;16501;51.462;14.346;2023-01-27T00:31:00;100618.91;;;-1.37;100.00
29569;BME280;16501;51.462;14.346;2023-01-27T00:33:27;100620.47;;;-1.40;100.00
29569;BME280;16501;51.462;14.346;2023-01-27T00:36:00;100623.56;;;-1.45;100.00
29569;BME280;16501;51.462;14.346;2023-01-27T00:38:27;100598.28;;;-1.65;100.00
29569;BME280;16501;51.462;14.346;2023-01-27T00:41:07;100603.44;;;-1.60;100.00
29569;BME280;16501;51.462;14.346;2023-01-27T00:43:47;100609.72;;;-1.59;100.00
29569;BME280;16501;51.462;14.346;2023-01-27T00:46:13;100607.72;;;-1.62;100.00
29569;BME280;16501;51.462;14.346;2023-01-27T00:48:39;100608.19;;;-1.53;100.00
29569;BME280;16501;51.462;14.346;2023-01-27T00:51:05;100608.97;;;-1.53;100.00
29569;BME280;16501;51.462;14.346;2023-01-27T00:53:31;100626.78;;;-1.39;100.00
29569;BME280;16501;51.462;14.346;2023-01-27T00:55:57;100629.91;;;-1.41;100.00
29569;BME280;16501;51.462;14.346;2023-01-27T00:58:23;100628.72;;;-1.40;100.00
29569;BME280;16501;51.462;14.346;2023-01-27T01:00:49;100615.69;;;-1.46;100.00
29569;BME280;16501;51.462;14.346;2023-01-27T01:03:14;100628.75;;;-1.33;100.00
29569;BME280;16501;51.462;14.346;2023-01-27T01:05:40;100621.28;;;-1.36;100.00
29569;BME280;16501;51.462;14.346;2023-01-27T01:08:06;100627.97;;;-1.37;100.00
29569;BME280;16501;51.462;14.346;2023-01-27T01:10:31;100618.84;;;-1.48;100.00
29569;BME280;16501;51.462;14.346;2023-01-27T01:12:57;100622.03;;;-1.42;100.00
29569;BME280;16501;51.462;14.346;2023-01-27T01:15:23;100626.38;;;-1.38;100.00
29569;BME280;16501;51.462;14.346;2023-01-27T01:17:49;100614.88;;;-1.50;100.00
29569;BME280;16501;51.462;14.346;2023-01-27T01:20:14;100638.13;;;-1.44;100.00
29569;BME280;16501;51.462;14.346;2023-01-27T01:22:40;100644.47;;;-1.37;100.00
29569;BME280;16501;51.462;14.346;2023-01-27T01:25:06;100642.50;;;-1.33;100.00
29569;BME280;16501;51.462;14.346;2023-01-27T01:27:33;100631.84;;;-1.41;100.00
29569;BME280;16501;51.462;14.346;2023-01-27T01:29:58;100628.22;;;-1.56;100.00
29569;BME280;16501;51.462;14.346;2023-01-27T01:32:25;100634.94;;;-1.46;100.00
29569;BME280;16501;51.462;14.346;2023-01-27T01:34:50;100633.78;;;-1.45;100.00
29569;BME280;16501;51.462;14.346;2023-01-27T01:37:15;100611.66;;;-1.63;100.00
29569;BME280;16501;51.462;14.346;2023-01-27T01:39:43;100632.19;;;-1.46;100.00
29569;BME280;16501;51.462;14.346;2023-01-27T01:42:08;100630.31;;;-1.39;100.00
29569;BME280;16501;51.462;14.346;2023-01-27T01:44:33;100626.63;;;-1.54;100.00
29569;BME280;16501;51.462;14.346;2023-01-27T01:46:59;100626.66;;;-1.50;100.00
29569;BME280;16501;51.462;14.346;2023-01-27T01:49:36;100629.41;;;-1.50;100.00
29569;BME280;16501;51.462;14.346;2023-01-27T01:52:11;100629.84;;;-1.48;100.00
29569;BME280;16501;51.462;14.346;2023-01-27T01:54:42;100644.09;;;-1.35;100.00
29569;BME280;16501;51.462;14.346;2023-01-27T01:57:27;100629.78;;;-1.55;100.00
29569;BME280;16501;51.462;14.346;2023-01-27T02:00:05;100647.56;;;-1.42;100.00
29569;BME280;16501;51.462;14.346;2023-01-27T02:02:32;100638.44;;;-1.53;100.00
29569;BME280;16501;51.462;14.346;2023-01-27T02:05:08;100640.41;;;-1.50;100.00
29569;BME280;16501;51.462;14.346;2023-01-27T02:07:50;100643.16;;;-1.50;100.00
29569;BME280;16501;51.462;14.346;2023-01-27T02:10:18;100628.59;;;-1.58;100.00
29569;BME280;16501;51.462;14.346;2023-01-27T02:12:43;100628.63;;;-1.54;100.00
29569;BME280;16501;51.462;14.346;2023-01-27T02:15:09;100660.50;;;-1.46;100.00
29569;BME280;16501;51.462;14.346;2023-01-27T02:17:35;100636.16;;;-1.44;100.00
29569;BME280;16501;51.462;14.346;2023-01-27T02:20:06;100648.81;;;-1.36;100.00
29569;BME280;16501;51.462;14.346;2023-01-27T02:23:00;100653.13;;;-1.35;100.00
29569;BME280;16501;51.462;14.346;2023-01-27T02:28:01;100654.28;;;-1.39;100.00
29569;BME280;16501;51.462;14.346;2023-01-27T02:30:27;100660.16;;;-1.41;100.00
29569;BME280;16501;51.462;14.346;2023-01-27T02:32:53;100633.31;;;-1.58;100.00
29569;BME280;16501;51.462;14.346;2023-01-27T02:35:30;100633.34;;;-1.51;100.00
29569;BME280;16501;51.462;14.346;2023-01-27T02:37:58;100657.41;;;-1.41;100.00
29569;BME280;16501;51.462;14.346;2023-01-27T02:40:24;100649.16;;;-1.41;100.00
29569;BME280;16501;51.462;14.346;2023-01-27T02:42:54;100640.03;;;-1.48;100.00
29569;BME280;16501;51.462;14.346;2023-01-27T02:45:20;100656.53;;;-1.52;100.00
29569;BME280;16501;51.462;14.346;2023-01-27T02:47:47;100651.50;;;-1.43;100.00
29569;BME280;16501;51.462;14.346;2023-01-27T02:50:12;100651.88;;;-1.44;100.00
29569;BME280;16501;51.462;14.346;2023-01-27T02:52:38;100652.66;;;-1.44;100.00
29569;BME280;16501;51.462;14.346;2023-01-27T02:55:03;100657.34;;;-1.48;100.00
29569;BME280;16501;51.462;14.346;2023-01-27T02:57:29;100621.75;;;-1.75;100.00
29569;BME280;16501;51.462;14.346;2023-01-27T02:59:54;100642.31;;;-1.61;100.00
29569;BME280;16501;51.462;14.346;2023-01-27T03:02:19;100657.72;;;-1.53;100.00
29569;BME280;16501;51.462;14.346;2023-01-27T03:04:47;100673.06;;;-1.45;100.00
29569;BME280;16501;51.462;14.346;2023-01-27T03:07:13;100668.31;;;-1.52;100.00
29569;BME280;16501;51.462;14.346;2023-01-27T03:09:38;100657.63;;;-1.60;100.00
29569;BME280;16501;51.462;14.346;2023-01-27T03:12:03;100664.75;;;-1.56;100.00
29569;BME280;16501;51.462;14.346;2023-01-27T03:14:44;100669.00;;;-1.65;100.00
29569;BME280;16501;51.462;14.346;2023-01-27T03:17:28;100670.22;;;-1.59;100.00
29569;BME280;16501;51.462;14.346;2023-01-27T03:20:12;100659.50;;;-1.72;100.00
29569;BME280;16501;51.462;14.346;2023-01-27T03:22:37;100670.97;;;-1.62;100.00
29569;BME280;16501;51.462;14.346;2023-01-27T03:25:03;100634.22;;;-1.88;100.00
29569;BME280;16501;51.462;14.346;2023-01-27T03:27:28;100673.34;;;-1.61;100.00
29569;BME280;16501;51.462;14.346;2023-01-27T03:29:54;100661.84;;;-1.74;100.00
29569;BME280;16501;51.462;14.346;2023-01-27T03:32:23;100682.31;;;-1.67;100.00
29569;BME280;16501;51.462;14.346;2023-01-27T03:34:49;100683.91;;;-1.66;100.00
29569;BME280;16501;51.462;14.346;2023-01-27T03:37:16;100677.66;;;-1.63;100.00
29569;BME280;16501;51.462;14.346;2023-01-27T03:40:00;100664.66;;;-1.66;100.00
29569;BME280;16501;51.462;14.346;2023-01-27T03:42:43;100667.72;;;-1.75;100.00
29569;BME280;16501;51.462;14.346;2023-01-27T03:45:28;100671.75;;;-1.65;100.00
29569;BME280;16501;51.462;14.346;2023-01-27T03:48:12;100687.16;;;-1.54;100.00
29569;BME280;16501;51.462;14.346;2023-01-27T03:50:38;100687.13;;;-1.57;100.00
29569;BME280;16501;51.462;14.346;2023-01-27T03:53:09;100691.44;;;-1.60;100.00
29569;BME280;16501;51.462;14.346;2023-01-27T03:55:36;100687.47;;;-1.62;100.00
29569;BME280;16501;51.462;14.346;2023-01-27T03:58:02;100684.00;;;-1.56;100.00
29569;BME280;16501;51.462;14.346;2023-01-27T04:00:44;100687.97;;;-1.53;100.00
29569;BME280;16501;51.462;14.346;2023-01-27T04:03:10;100687.81;;;-1.67;100.00
29569;BME280;16501;51.462;14.346;2023-01-27T04:05:54;100685.97;;;-1.56;100.00
29569;BME280;16501;51.462;14.346;2023-01-27T04:08:41;100685.63;;;-1.51;100.00
29569;BME280;16501;51.462;14.346;2023-01-27T04:11:07;100689.56;;;-1.48;100.00
29569;BME280;16501;51.462;14.346;2023-01-27T04:13:51;100673.00;;;-1.56;100.00
29569;BME280;16501;51.462;14.346;2023-01-27T04:16:16;100673.03;;;-1.52;100.00
29569;BME280;16501;51.462;14.346;2023-01-27T04:18:44;100657.16;;;-1.69;100.00
29569;BME280;16501;51.462;14.346;2023-01-27T04:21:10;100665.16;;;-1.54;100.00
29569;BME280;16501;51.462;14.346;2023-01-27T04:23:37;100674.22;;;-1.49;100.00
29569;BME280;16501;51.462;14.346;2023-01-27T04:26:02;100680.13;;;-1.51;100.00
29569;BME280;16501;51.462;14.346;2023-01-27T04:28:28;100662.38;;;-1.57;100.00
29569;BME280;16501;51.462;14.346;2023-01-27T04:30:54;100670.31;;;-1.45;100.00
29569;BME280;16501;51.462;14.346;2023-01-27T04:33:19;100632.78;;;-1.71;100.00
29569;BME280;16501;51.462;14.346;2023-01-27T04:35:45;100678.16;;;-1.47;100.00
29569;BME280;16501;51.462;14.346;2023-01-27T04:38:11;100635.06;;;-1.80;100.00
29569;BME280;16501;51.462;14.346;2023-01-27T04:40:37;100673.31;;;-1.64;100.00
29569;BME280;16501;51.462;14.346;2023-01-27T04:43:02;100647.56;;;-1.86;100.00
29569;BME280;16501;51.462;14.346;2023-01-27T04:45:28;100685.09;;;-1.64;100.00
29569;BME280;16501;51.462;14.346;2023-01-27T04:47:53;100669.34;;;-1.71;100.00
29569;BME280;16501;51.462;14.346;2023-01-27T04:50:18;100669.25;;;-1.78;100.00
29569;BME280;16501;51.462;14.346;2023-01-27T04:52:44;100696.13;;;-1.60;100.00
29569;BME280;16501;51.462;14.346;2023-01-27T04:55:10;100698.84;;;-1.64;100.00
29569;BME280;16501;51.462;14.346;2023-01-27T04:57:35;100676.69;;;-1.82;100.00
29569;BME280;16501;51.462;14.346;2023-01-27T05:00:03;100688.97;;;-1.72;100.00
29569;BME280;16501;51.462;14.346;2023-01-27T05:02:31;100685.41;;;-1.73;100.00
29569;BME280;16501;51.462;14.346;2023-01-27T05:04:56;100682.25;;;-1.75;100.00
29569;BME280;16501;51.462;14.346;2023-01-27T05:07:22;100687.81;;;-1.67;100.00
29569;BME280;16501;51.462;14.346;2023-01-27T05:09:47;100677.16;;;-1.73;100.00
29569;BME280;16501;51.462;14.346;2023-01-27T05:12:12;100675.16;;;-1.79;100.00
29569;BME280;16501;51.462;14.346;2023-01-27T05:14:39;100683.44;;;-1.76;100.00
29569;BME280;16501;51.462;14.346;2023-01-27T05:17:04;100663.28;;;-1.87;100.00
29569;BME280;16501;51.462;14.346;2023-01-27T05:19:30;100660.41;;;-2.01;100.00
29569;BME280;16501;51.462;14.346;2023-01-27T05:21:55;100675.38;;;-1.95;100.00
29569;BME280;16501;51.462;14.346;2023-01-27T05:24:22;100674.16;;;-1.98;100.00
29569;BME280;16501;51.462;14.346;2023-01-27T05:26:50;100648.94;;;-2.11;100.00
29569;BME280;16501;51.462;14.346;2023-01-27T05:29:15;100646.03;;;-2.21;100.00
29569;BME280;16501;51.462;14.346;2023-01-27T05:31:41;100688.34;;;-1.92;100.00
29569;BME280;16501;51.462;14.346;2023-01-27T05:34:07;100657.66;;;-2.01;100.00
29569;BME280;16501;51.462;14.346;2023-01-27T05:36:33;100706.63;;;-1.73;100.00
29569;BME280;16501;51.462;14.346;2023-01-27T05:39:00;100697.03;;;-1.86;100.00
29569;BME280;16501;51.462;14.346;2023-01-27T05:41:28;100675.97;;;-2.13;100.00
29569;BME280;16501;51.462;14.346;2023-01-27T05:43:56;100708.78;;;-1.93;100.00
29569;BME280;16501;51.462;14.346;2023-01-27T05:46:24;100715.16;;;-1.82;100.00
29569;BME280;16501;51.462;14.346;2023-01-27T05:48:55;100700.53;;;-1.93;100.00
29569;BME280;16501;51.462;14.346;2023-01-27T05:51:23;100720.25;;;-1.84;100.00
29569;BME280;16501;51.462;14.346;2023-01-27T05:53:50;100707.25;;;-1.87;100.00
29569;BME280;16501;51.462;14.346;2023-01-27T05:56:17;100724.59;;;-1.83;100.00
29569;BME280;16501;51.462;14.346;2023-01-27T05:58:43;100727.69;;;-1.88;100.00
29569;BME280;16501;51.462;14.346;2023-01-27T06:01:17;100713.88;;;-1.92;100.00
29569;BME280;16501;51.462;14.346;2023-01-27T06:03:43;100722.25;;;-1.81;100.00
29569;BME280;16501;51.462;14.346;2023-01-27T06:06:10;100696.13;;;-2.01;100.00
29569;BME280;16501;51.462;14.346;2023-01-27T06:08:36;100693.84;;;-1.92;100.00
29569;BME280;16501;51.462;14.346;2023-01-27T06:11:03;100721.44;;;-1.81;100.00
29569;BME280;16501;51.462;14.346;2023-01-27T06:13:29;100702.50;;;-1.90;100.00
29569;BME280;16501;51.462;14.346;2023-01-27T06:15:54;100717.50;;;-1.84;100.00
29569;BME280;16501;51.462;14.346;2023-01-27T06:18:21;100711.19;;;-1.88;100.00
29569;BME280;16501;51.462;14.346;2023-01-27T06:20:46;100716.69;;;-1.88;100.00
29569;BME280;16501;51.462;14.346;2023-01-27T06:23:13;100717.44;;;-1.91;100.00
29569;BME280;16501;51.462;14.346;2023-01-27T06:25:42;100734.34;;;-1.89;100.00
29569;BME280;16501;51.462;14.346;2023-01-27T06:28:10;100737.91;;;-1.85;100.00
29569;BME280;16501;51.462;14.346;2023-01-27T06:30:38;100715.03;;;-1.96;100.00
29569;BME280;16501;51.462;14.346;2023-01-27T06:33:06;100732.41;;;-1.85;100.00
29569;BME280;16501;51.462;14.346;2023-01-27T06:35:33;100742.59;;;-1.89;100.00
29569;BME280;16501;51.462;14.346;2023-01-27T06:37:59;100752.09;;;-1.83;100.00
29569;BME280;16501;51.462;14.346;2023-01-27T06:40:28;100753.16;;;-1.91;100.00
29569;BME280;16501;51.462;14.346;2023-01-27T06:42:54;100760.75;;;-1.81;100.00
29569;BME280;16501;51.462;14.346;2023-01-27T06:45:19;100751.59;;;-1.88;100.00
29569;BME280;16501;51.462;14.346;2023-01-27T06:47:44;100746.44;;;-1.94;100.00
29569;BME280;16501;51.462;14.346;2023-01-27T06:50:10;100714.09;;;-2.08;100.00
29569;BME280;16501;51.462;14.346;2023-01-27T06:52:36;100744.25;;;-1.81;100.00
29569;BME280;16501;51.462;14.346;2023-01-27T06:55:04;100737.88;;;-1.88;100.00
29569;BME280;16501;51.462;14.346;2023-01-27T06:57:29;100727.16;;;-1.97;100.00
29569;BME280;16501;51.462;14.346;2023-01-27T06:59:56;100738.56;;;-1.95;100.00
29569;BME280;16501;51.462;14.346;2023-01-27T07:02:21;100747.75;;;-1.84;100.00
29569;BME280;16501;51.462;14.346;2023-01-27T07:04:47;100743.31;;;-1.92;100.00
29569;BME280;16501;51.462;14.346;2023-01-27T07:07:12;100751.59;;;-1.88;100.00
29569;BME280;16501;51.462;14.346;2023-01-27T07:09:38;100738.69;;;-1.88;100.00
29569;BME280;16501;51.462;14.346;2023-01-27T07:12:04;100740.91;;;-1.97;100.00
29569;BME280;16501;51.462;14.346;2023-01-27T07:14:29;100765.06;;;-1.80;100.00
29569;BME280;16501;51.462;14.346;2023-01-27T07:16:56;100766.31;;;-1.74;100.00
29569;BME280;16501;51.462;14.346;2023-01-27T07:19:21;100760.81;;;-1.74;100.00
29569;BME280;16501;51.462;14.346;2023-01-27T07:21:46;100749.41;;;-1.76;100.00
29569;BME280;16501;51.462;14.346;2023-01-27T07:24:12;100762.47;;;-1.65;100.00
29569;BME280;16501;51.462;14.346;2023-01-27T07:26:37;100755.66;;;-1.79;100.00
29569;BME280;16501;51.462;14.346;2023-01-27T07:29:02;100732.34;;;-1.92;100.00
29569;BME280;16501;51.462;14.346;2023-01-27T07:31:28;100746.22;;;-1.78;100.00
29569;BME280;16501;51.462;14.346;2023-01-27T07:33:54;100746.66;;;-1.76;100.00
29569;BME280;16501;51.462;14.346;2023-01-27T07:36:20;100752.91;;;-1.79;100.00
29569;BME280;16501;51.462;14.346;2023-01-27T07:38:49;100763.56;;;-1.74;100.00
29569;BME280;16501;51.462;14.346;2023-01-27T07:41:15;100770.97;;;-1.78;100.00
29569;BME280;16501;51.462;14.346;2023-01-27T07:43:42;100769.47;;;-1.72;100.00
29569;BME280;16501;51.462;14.346;2023-01-27T07:46:07;100776.13;;;-1.73;100.00
29569;BME280;16501;51.462;14.346;2023-01-27T07:48:32;100759.47;;;-1.87;100.00
29569;BME280;16501;51.462;14.346;2023-01-27T07:50:58;100782.06;;;-1.71;100.00
29569;BME280;16501;51.462;14.346;2023-01-27T07:53:23;100770.22;;;-1.75;100.00
29569;BME280;16501;51.462;14.346;2023-01-27T07:55:51;100781.31;;;-1.64;100.00
29569;BME280;16501;51.462;14.346;2023-01-27T07:58:16;100794.66;;;-1.66;100.00
29569;BME280;16501;51.462;14.346;2023-01-27T08:00:42;100792.72;;;-1.65;100.00
29569;BME280;16501;51.462;14.346;2023-01-27T08:03:19;100798.13;;;-1.73;100.00
29569;BME280;16501;51.462;14.346;2023-01-27T08:05:45;100788.16;;;-1.88;100.00
29569;BME280;16501;51.462;14.346;2023-01-27T08:08:11;100801.66;;;-1.76;100.00
29569;BME280;16501;51.462;14.346;2023-01-27T08:10:36;100811.16;;;-1.66;100.00
29569;BME280;16501;51.462;14.346;2023-01-27T08:13:01;100820.31;;;-1.58;100.00
29569;BME280;16501;51.462;14.346;2023-01-27T08:15:33;100805.69;;;-1.62;100.00
29569;BME280;16501;51.462;14.346;2023-01-27T08:17:58;100788.34;;;-1.70;100.00
29569;BME280;16501;51.462;14.346;2023-01-27T08:20:25;100816.81;;;-1.52;100.00
29569;BME280;16501;51.462;14.346;2023-01-27T08:22:53;100797.13;;;-1.57;100.00
29569;BME280;16501;51.462;14.346;2023-01-27T08:25:19;100821.22;;;-1.43;100.00
29569;BME280;16501;51.462;14.346;2023-01-27T08:27:44;100810.56;;;-1.48;100.00
29569;BME280;16501;51.462;14.346;2023-01-27T08:30:10;100819.28;;;-1.43;100.00
29569;BME280;16501;51.462;14.346;2023-01-27T08:32:35;100807.25;;;-1.65;100.00
29569;BME280;16501;51.462;14.346;2023-01-27T08:35:00;100827.25;;;-1.68;100.00
29569;BME280;16501;51.462;14.346;2023-01-27T08:37:26;100825.47;;;-1.53;100.00
29569;BME280;16501;51.462;14.346;2023-01-27T08:39:51;100813.22;;;-1.59;100.00
29569;BME280;16501;51.462;14.346;2023-01-27T08:42:16;100823.50;;;-1.53;100.00
29569;BME280;16501;51.462;14.346;2023-01-27T08:44:42;100819.50;;;-1.59;100.00
29569;BME280;16501;51.462;14.346;2023-01-27T08:47:07;100823.13;;;-1.51;100.00
29569;BME280;16501;51.462;14.346;2023-01-27T08:49:32;100827.03;;;-1.52;100.00
29569;BME280;16501;51.462;14.346;2023-01-27T08:51:58;100811.13;;;-1.69;100.00
29569;BME280;16501;51.462;14.346;2023-01-27T08:54:23;100821.47;;;-1.59;100.00
29569;BME280;16501;51.462;14.346;2023-01-27T08:56:48;100823.91;;;-1.50;100.00
29569;BME280;16501;51.462;14.346;2023-01-27T08:59:13;100811.28;;;-1.55;100.00
29569;BME280;16501;51.462;14.346;2023-01-27T09:01:40;100834.50;;;-1.53;100.00
29569;BME280;16501;51.462;14.346;2023-01-27T09:04:06;100826.34;;;-1.42;100.00
29569;BME280;16501;51.462;14.346;2023-01-27T09:06:31;100821.53;;;-1.52;100.00
29569;BME280;16501;51.462;14.346;2023-01-27T09:08:57;100834.16;;;-1.47;100.00
29569;BME280;16501;51.462;14.346;2023-01-27T09:11:40;100819.97;;;-1.53;100.00
29569;BME280;16501;51.462;14.346;2023-01-27T09:14:07;100811.63;;;-1.60;100.00
29569;BME280;16501;51.462;14.346;2023-01-27T09:16:33;100832.53;;;-1.52;100.00
29569;BME280;16501;51.462;14.346;2023-01-27T09:18:58;100844.47;;;-1.41;100.00
29569;BME280;16501;51.462;14.346;2023-01-27T09:21:25;100835.69;;;-1.50;100.00
29569;BME280;16501;51.462;14.346;2023-01-27T09:23:51;100825.38;;;-1.60;100.00
29569;BME280;16501;51.462;14.346;2023-01-27T09:26:16;100830.56;;;-1.52;100.00
29569;BME280;16501;51.462;14.346;2023-01-27T09:28:43;100805.13;;;-1.79;100.00
29569;BME280;16501;51.462;14.346;2023-01-27T09:31:08;100835.22;;;-1.59;100.00
29569;BME280;16501;51.462;14.346;2023-01-27T09:33:34;100850.56;;;-1.58;100.00
29569;BME280;16501;51.462;14.346;2023-01-27T09:36:12;100859.66;;;-1.50;100.00
29569;BME280;16501;51.462;14.346;2023-01-27T09:38:47;100849.88;;;-1.48;100.00
29569;BME280;16501;51.462;14.346;2023-01-27T09:41:36;100867.28;;;-1.37;100.00
29569;BME280;16501;51.462;14.346;2023-01-27T09:47:39;100866.56;;;-1.30;100.00
29569;BME280;16501;51.462;14.346;2023-01-27T09:50:32;100850.78;;;-1.37;100.00
29569;BME280;16501;51.462;14.346;2023-01-27T09:56:00;100859.19;;;-1.22;100.00
29569;BME280;16501;51.462;14.346;2023-01-27T09:58:36;100853.69;;;-1.22;100.00
29569;BME280;16501;51.462;14.346;2023-01-27T10:04:30;100842.66;;;-1.22;100.00
29569;BME280;16501;51.462;14.346;2023-01-27T10:20:53;100844.22;;;-0.80;100.00
29569;BME280;16501;51.462;14.346;2023-01-27T10:23:50;100848.91;;;-0.84;100.00
29569;BME280;16501;51.462;14.346;2023-01-27T10:29:25;100831.50;;;-0.99;100.00
29569;BME280;16501;51.462;14.346;2023-01-27T10:32:00;100831.09;;;-0.98;100.00
29569;BME280;16501;51.462;14.346;2023-01-27T10:37:45;100851.63;;;-0.91;100.00
29569;BME280;16501;51.462;14.346;2023-01-27T10:40:24;100853.59;;;-0.92;100.00
29569;BME280;16501;51.462;14.346;2023-01-27T10:43:26;100851.94;;;-1.00;100.00
29569;BME280;16501;51.462;14.346;2023-01-27T10:48:48;100846.47;;;-0.97;100.00
29569;BME280;16501;51.462;14.346;2023-01-27T10:51:23;100852.78;;;-0.92;100.00
29569;BME280;16501;51.462;14.346;2023-01-27T10:54:03;100844.06;;;-0.98;100.00
29569;BME280;16501;51.462;14.346;2023-01-27T10:56:52;100830.31;;;-0.98;100.00
29569;BME280;16501;51.462;14.346;2023-01-27T11:05:01;100831.50;;;-0.99;100.00
29569;BME280;16501;51.462;14.346;2023-01-27T11:07:29;100844.84;;;-0.98;100.00
29569;BME280;16501;51.462;14.346;2023-01-27T11:09:59;100836.59;;;-0.98;100.00
29569;BME280;16501;51.462;14.346;2023-01-27T11:12:34;100834.66;;;-0.97;100.00
29569;BME280;16501;51.462;14.346;2023-01-27T11:15:01;100837.84;;;-0.91;100.00
29569;BME280;16501;51.462;14.346;2023-01-27T11:18:00;100848.09;;;-0.88;100.00
29569;BME280;16501;51.462;14.346;2023-01-27T11:20:31;100852.88;;;-0.85;100.00
29569;BME280;16501;51.462;14.346;2023-01-27T11:26:10;100827.22;;;-0.93;100.00
29569;BME280;16501;51.462;14.346;2023-01-27T11:31:36;100847.03;;;-0.77;100.00
29569;BME280;16501;51.462;14.346;2023-01-27T11:34:12;100853.72;;;-0.74;100.00
29569;BME280;16501;51.462;14.346;2023-01-27T11:36:40;100837.56;;;-0.79;100.00
29569;BME280;16501;51.462;14.346;2023-01-27T11:39:05;100818.56;;;-0.91;100.00
29569;BME280;16501;51.462;14.346;2023-01-27T11:41:36;100842.31;;;-0.76;100.00
29569;BME280;16501;51.462;14.346;2023-01-27T11:44:06;100849.47;;;-0.68;100.00
29569;BME280;16501;51.462;14.346;2023-01-27T11:46:36;100828.78;;;-0.96;100.00
29569;BME280;16501;51.462;14.346;2023-01-27T11:49:02;100816.50;;;-1.05;100.00
29569;BME280;16501;51.462;14.346;2023-01-27T11:51:38;100810.22;;;-1.06;100.00
29569;BME280;16501;51.462;14.346;2023-01-27T11:56:36;100822.13;;;-0.91;100.00
29569;BME280;16501;51.462;14.346;2023-01-27T11:59:08;100830.53;;;-0.73;100.00
29569;BME280;16501;51.462;14.346;2023-01-27T12:04:21;100800.81;;;-0.98;100.00
29569;BME280;16501;51.462;14.346;2023-01-27T12:06:54;100839.63;;;-0.65;100.00
29569;BME280;16501;51.462;14.346;2023-01-27T12:09:38;100832.50;;;-0.70;100.00
29569;BME280;16501;51.462;14.346;2023-01-27T12:12:10;100811.69;;;-0.67;100.00
29569;BME280;16501;51.462;14.346;2023-01-27T12:15:15;100825.13;;;-0.59;100.00
29569;BME280;16501;51.462;14.346;2023-01-27T12:17:54;100817.66;;;-0.54;100.00
29569;BME280;16501;51.462;14.346;2023-01-27T12:22:46;100797.88;;;-0.74;100.00
29569;BME280;16501;51.462;14.346;2023-01-27T12:25:18;100808.06;;;-0.79;100.00
29569;BME280;16501;51.462;14.346;2023-01-27T12:27:50;100799.41;;;-0.77;100.00
29569;BME280;16501;51.462;14.346;2023-01-27T12:30:23;100829.84;;;-0.63;100.00
29569;BME280;16501;51.462;14.346;2023-01-27T12:32:51;100803.41;;;-0.71;100.00
29569;BME280;16501;51.462;14.346;2023-01-27T12:35:29;100792.75;;;-0.76;100.00
29569;BME280;16501;51.462;14.346;2023-01-27T12:38:00;100814.47;;;-0.64;100.00
29569;BME280;16501;51.462;14.346;2023-01-27T12:40:27;100799.47;;;-0.66;100.00
29569;BME280;16501;51.462;14.346;2023-01-27T12:43:18;100811.34;;;-0.62;100.00
29569;BME280;16501;51.462;14.346;2023-01-27T12:45:44;100817.22;;;-0.64;100.00
29569;BME280;16501;51.462;14.346;2023-01-27T12:48:29;100809.38;;;-0.62;100.00
29569;BME280;16501;51.462;14.346;2023-01-27T12:50:56;100797.13;;;-0.68;100.00
29569;BME280;16501;51.462;14.346;2023-01-27T12:53:30;100816.09;;;-0.55;100.00
29569;BME280;16501;51.462;14.346;2023-01-27T12:56:34;100811.34;;;-0.62;100.00
29569;BME280;16501;51.462;14.346;2023-01-27T12:59:00;100811.75;;;-0.57;100.00
29569;BME280;16501;51.462;14.346;2023-01-27T13:01:29;100794.44;;;-0.61;100.00
29569;BME280;16501;51.462;14.346;2023-01-27T13:03:58;100781.38;;;-0.71;100.00
29569;BME280;16501;51.462;14.346;2023-01-27T13:06:32;100797.13;;;-0.68;100.00
29569;BME280;16501;51.462;14.346;2023-01-27T13:09:26;100816.53;;;-0.50;100.00
29569;BME280;16501;51.462;14.346;2023-01-27T13:11:57;100811.34;;;-0.59;100.00
29569;BME280;16501;51.462;14.346;2023-01-27T13:14:27;100818.50;;;-0.54;100.00
29569;BME280;16501;51.462;14.346;2023-01-27T13:16:55;100813.31;;;-0.63;100.00
29569;BME280;16501;51.462;14.346;2023-01-27T13:19:32;100812.91;;;-0.58;100.00
29569;BME280;16501;51.462;14.346;2023-01-27T13:21:59;100788.81;;;-0.75;100.00
29569;BME280;16501;51.462;14.346;2023-01-27T13:24:41;100779.28;;;-0.88;100.00
29569;BME280;16501;51.462;14.346;2023-01-27T13:27:12;100801.47;;;-0.67;100.00
29569;BME280;16501;51.462;14.346;2023-01-27T13:29:40;100800.28;;;-0.69;100.00
29569;BME280;16501;51.462;14.346;2023-01-27T13:32:21;100814.91;;;-0.54;100.00
29569;BME280;16501;51.462;14.346;2023-01-27T13:34:53;100818.06;;;-0.52;100.00
29569;BME280;16501;51.462;14.346;2023-01-27T13:37:32;100825.16;;;-0.55;100.00